sensor_id;sensor_type;location;lat;lon;timestamp;P1;durP1;ratioP1;P2;durP2;ratioP2
8665;SDS011;4370;48.916;8.380;2023-07-20T00:01:23;2.80;;;2.10;;
8665;SDS011;4370;48.916;8.380;2023-07-20T00:03:49;2.60;;;2.40;;
8665;SDS011;4370;48.916;8.380;2023-07-20T00:06:24;2.60;;;2.20;;
8665;SDS011;4370;48.916;8.380;2023-07-20T00:08:54;2.37;;;2.00;;
8665;SDS011;4370;48.916;8.380;2023-07-20T00:11:20;2.20;;;2.00;;
8665;SDS011;4370;48.916;8.380;2023-07-20T00:13:48;2.53;;;2.30;;
8665;SDS011;4370;48.916;8.380;2023-07-20T00:16:15;2.47;;;2.03;;
8665;SDS011;4370;48.916;8.380;2023-07-20T00:18:40;2.60;;;2.40;;
8665;SDS011;4370;48.916;8.380;2023-07-20T00:21:06;3.10;;;2.30;;
8665;SDS011;4370;48.916;8.380;2023-07-20T00:23:31;2.70;;;2.40;;
8665;SDS011;4370;48.916;8.380;2023-07-20T00:25:57;4.50;;;2.30;;
8665;SDS011;4370;48.916;8.380;2023-07-20T00:28:23;2.47;;;2.20;;
8665;SDS011;4370;48.916;8.380;2023-07-20T00:30:48;2.50;;;2.30;;
8665;SDS011;4370;48.916;8.380;2023-07-20T00:33:16;3.00;;;2.30;;
8665;SDS011;4370;48.916;8.380;2023-07-20T00:35:42;2.63;;;2.20;;
8665;SDS011;4370;48.916;8.380;2023-07-20T00:38:08;3.67;;;2.47;;
8665;SDS011;4370;48.916;8.380;2023-07-20T00:40:36;3.70;;;2.60;;
8665;SDS011;4370;48.916;8.380;2023-07-20T00:43:06;2.53;;;2.30;;
8665;SDS011;4370;48.916;8.380;2023-07-20T00:45:33;2.80;;;2.30;;
8665;SDS011;4370;48.916;8.380;2023-07-20T00:47:59;3.00;;;2.50;;
8665;SDS011;4370;48.916;8.380;2023-07-20T00:50:27;2.33;;;2.13;;
8665;SDS011;4370;48.916;8.380;2023-07-20T00:52:54;2.57;;;2.27;;
8665;SDS011;4370;48.916;8.380;2023-07-20T00:55:21;2.40;;;2.20;;
8665;SDS011;4370;48.916;8.380;2023-07-20T00:57:47;3.30;;;2.20;;
8665;SDS011;4370;48.916;8.380;2023-07-20T01:00:13;2.70;;;2.40;;
8665;SDS011;4370;48.916;8.380;2023-07-20T01:02:40;3.40;;;2.27;;
8665;SDS011;4370;48.916;8.380;2023-07-20T01:05:05;2.70;;;2.13;;
8665;SDS011;4370;48.916;8.380;2023-07-20T01:07:38;2.90;;;2.30;;
8665;SDS011;4370;48.916;8.380;2023-07-20T01:10:12;3.23;;;2.30;;
8665;SDS011;4370;48.916;8.380;2023-07-20T01:12:51;2.73;;;2.40;;
8665;SDS011;4370;48.916;8.380;2023-07-20T01:15:17;2.30;;;2.10;;
8665;SDS011;4370;48.916;8.380;2023-07-20T01:17:43;5.07;;;2.70;;
8665;SDS011;4370;48.916;8.380;2023-07-20T01:20:10;3.27;;;2.43;;
8665;SDS011;4370;48.916;8.380;2023-07-20T01:31:36;3.13;;;2.53;;
8665;SDS011;4370;48.916;8.380;2023-07-20T01:34:03;3.53;;;2.33;;
8665;SDS011;4370;48.916;8.380;2023-07-20T01:36:33;3.47;;;2.40;;
8665;SDS011;4370;48.916;8.380;2023-07-20T01:38:59;3.40;;;2.73;;
8665;SDS011;4370;48.916;8.380;2023-07-20T01:41:26;2.60;;;2.40;;
8665;SDS011;4370;48.916;8.380;2023-07-20T01:43:51;2.50;;;2.23;;
8665;SDS011;4370;48.916;8.380;2023-07-20T01:46:17;3.80;;;2.30;;
8665;SDS011;4370;48.916;8.380;2023-07-20T01:48:42;2.63;;;2.20;;
8665;SDS011;4370;48.916;8.380;2023-07-20T01:51:08;2.53;;;2.30;;
8665;SDS011;4370;48.916;8.380;2023-07-20T01:53:33;3.27;;;2.40;;
8665;SDS011;4370;48.916;8.380;2023-07-20T01:55:59;3.30;;;2.50;;
8665;SDS011;4370;48.916;8.380;2023-07-20T01:58:24;2.60;;;2.23;;
8665;SDS011;4370;48.916;8.380;2023-07-20T02:00:50;2.90;;;2.47;;
8665;SDS011;4370;48.916;8.380;2023-07-20T02:03:16;2.87;;;2.10;;
8665;SDS011;4370;48.916;8.380;2023-07-20T02:05:44;2.83;;;2.40;;
8665;SDS011;4370;48.916;8.380;2023-07-20T02:08:10;2.73;;;2.37;;
8665;SDS011;4370;48.916;8.380;2023-07-20T02:10:36;2.70;;;2.20;;
8665;SDS011;4370;48.916;8.380;2023-07-20T02:13:02;2.87;;;2.30;;
8665;SDS011;4370;48.916;8.380;2023-07-20T02:15:28;3.43;;;2.37;;
8665;SDS011;4370;48.916;8.380;2023-07-20T02:17:53;2.67;;;2.20;;
8665;SDS011;4370;48.916;8.380;2023-07-20T02:20:19;2.20;;;2.00;;
8665;SDS011;4370;48.916;8.380;2023-07-20T02:22:45;2.57;;;2.30;;
8665;SDS011;4370;48.916;8.380;2023-07-20T02:25:11;3.83;;;2.77;;
8665;SDS011;4370;48.916;8.380;2023-07-20T02:27:37;4.10;;;2.73;;
8665;SDS011;4370;48.916;8.380;2023-07-20T02:30:04;2.60;;;2.40;;
8665;SDS011;4370;48.916;8.380;2023-07-20T02:32:30;3.40;;;2.40;;
8665;SDS011;4370;48.916;8.380;2023-07-20T02:34:57;3.83;;;2.60;;
8665;SDS011;4370;48.916;8.380;2023-07-20T02:37:23;3.47;;;2.27;;
8665;SDS011;4370;48.916;8.380;2023-07-20T02:39:49;2.63;;;2.40;;
8665;SDS011;4370;48.916;8.380;2023-07-20T02:42:15;3.13;;;2.23;;
8665;SDS011;4370;48.916;8.380;2023-07-20T02:44:40;2.27;;;2.07;;
8665;SDS011;4370;48.916;8.380;2023-07-20T02:47:06;2.30;;;2.10;;
8665;SDS011;4370;48.916;8.380;2023-07-20T02:49:32;3.17;;;2.30;;
8665;SDS011;4370;48.916;8.380;2023-07-20T02:51:57;3.03;;;2.30;;
8665;SDS011;4370;48.916;8.380;2023-07-20T02:54:23;2.77;;;2.40;;
8665;SDS011;4370;48.916;8.380;2023-07-20T02:56:49;3.63;;;2.17;;
8665;SDS011;4370;48.916;8.380;2023-07-20T02:59:14;2.97;;;2.50;;
8665;SDS011;4370;48.916;8.380;2023-07-20T03:01:40;2.90;;;2.60;;
8665;SDS011;4370;48.916;8.380;2023-07-20T03:04:07;3.23;;;2.30;;
8665;SDS011;4370;48.916;8.380;2023-07-20T03:06:35;2.50;;;2.10;;
8665;SDS011;4370;48.916;8.380;2023-07-20T03:09:01;4.20;;;2.23;;
8665;SDS011;4370;48.916;8.380;2023-07-20T03:11:26;2.87;;;2.30;;
8665;SDS011;4370;48.916;8.380;2023-07-20T03:13:52;3.40;;;2.40;;
8665;SDS011;4370;48.916;8.380;2023-07-20T03:16:18;3.80;;;2.60;;
8665;SDS011;4370;48.916;8.380;2023-07-20T03:18:44;3.90;;;2.60;;
8665;SDS011;4370;48.916;8.380;2023-07-20T03:21:10;2.37;;;2.17;;
8665;SDS011;4370;48.916;8.380;2023-07-20T03:23:36;2.60;;;2.40;;
8665;SDS011;4370;48.916;8.380;2023-07-20T03:26:02;3.33;;;2.33;;
8665;SDS011;4370;48.916;8.380;2023-07-20T03:28:28;3.13;;;2.57;;
8665;SDS011;4370;48.916;8.380;2023-07-20T03:30:56;3.73;;;2.20;;
8665;SDS011;4370;48.916;8.380;2023-07-20T03:33:27;4.60;;;2.67;;
8665;SDS011;4370;48.916;8.380;2023-07-20T03:35:54;4.53;;;2.60;;
8665;SDS011;4370;48.916;8.380;2023-07-20T03:38:20;3.47;;;2.57;;
8665;SDS011;4370;48.916;8.380;2023-07-20T03:40:50;5.83;;;2.77;;
8665;SDS011;4370;48.916;8.380;2023-07-20T03:43:20;4.60;;;2.70;;
8665;SDS011;4370;48.916;8.380;2023-07-20T03:45:46;3.43;;;2.63;;
8665;SDS011;4370;48.916;8.380;2023-07-20T03:48:13;4.63;;;2.43;;
8665;SDS011;4370;48.916;8.380;2023-07-20T03:50:40;3.90;;;2.63;;
8665;SDS011;4370;48.916;8.380;2023-07-20T03:53:06;4.00;;;2.63;;
8665;SDS011;4370;48.916;8.380;2023-07-20T03:55:31;4.03;;;2.40;;
8665;SDS011;4370;48.916;8.380;2023-07-20T03:57:57;3.37;;;2.67;;
8665;SDS011;4370;48.916;8.380;2023-07-20T04:00:24;2.27;;;2.03;;
8665;SDS011;4370;48.916;8.380;2023-07-20T04:02:50;3.00;;;2.60;;
8665;SDS011;4370;48.916;8.380;2023-07-20T04:05:16;2.50;;;2.30;;
8665;SDS011;4370;48.916;8.380;2023-07-20T04:07:42;3.67;;;2.20;;
8665;SDS011;4370;48.916;8.380;2023-07-20T04:10:07;2.73;;;2.50;;
8665;SDS011;4370;48.916;8.380;2023-07-20T04:12:34;4.47;;;2.83;;
8665;SDS011;4370;48.916;8.380;2023-07-20T04:15:00;3.30;;;2.40;;
8665;SDS011;4370;48.916;8.380;2023-07-20T04:17:26;2.53;;;2.30;;
8665;SDS011;4370;48.916;8.380;2023-07-20T04:19:51;2.70;;;2.50;;
8665;SDS011;4370;48.916;8.380;2023-07-20T04:22:17;3.50;;;2.73;;
8665;SDS011;4370;48.916;8.380;2023-07-20T04:24:42;4.30;;;2.53;;
8665;SDS011;4370;48.916;8.380;2023-07-20T04:27:08;3.50;;;2.60;;
8665;SDS011;4370;48.916;8.380;2023-07-20T04:29:33;2.80;;;2.50;;
8665;SDS011;4370;48.916;8.380;2023-07-20T04:32:02;3.90;;;2.40;;
8665;SDS011;4370;48.916;8.380;2023-07-20T04:34:28;4.33;;;2.40;;
8665;SDS011;4370;48.916;8.380;2023-07-20T04:36:53;3.60;;;2.50;;
8665;SDS011;4370;48.916;8.380;2023-07-20T04:39:18;3.13;;;2.47;;
8665;SDS011;4370;48.916;8.380;2023-07-20T04:41:44;2.60;;;2.40;;
8665;SDS011;4370;48.916;8.380;2023-07-20T04:44:09;2.87;;;2.50;;
8665;SDS011;4370;48.916;8.380;2023-07-20T04:46:36;2.60;;;2.40;;
8665;SDS011;4370;48.916;8.380;2023-07-20T04:49:05;2.63;;;2.30;;
8665;SDS011;4370;48.916;8.380;2023-07-20T04:51:31;4.57;;;3.03;;
8665;SDS011;4370;48.916;8.380;2023-07-20T04:53:56;5.57;;;2.93;;
8665;SDS011;4370;48.916;8.380;2023-07-20T04:56:24;3.57;;;2.40;;
8665;SDS011;4370;48.916;8.380;2023-07-20T04:58:49;2.70;;;2.50;;
8665;SDS011;4370;48.916;8.380;2023-07-20T05:01:16;4.00;;;2.57;;
8665;SDS011;4370;48.916;8.380;2023-07-20T05:03:41;2.70;;;2.20;;
8665;SDS011;4370;48.916;8.380;2023-07-20T05:06:07;3.57;;;2.53;;
8665;SDS011;4370;48.916;8.380;2023-07-20T05:08:33;2.60;;;2.20;;
8665;SDS011;4370;48.916;8.380;2023-07-20T05:11:01;3.40;;;2.40;;
8665;SDS011;4370;48.916;8.380;2023-07-20T05:13:28;2.67;;;2.37;;
8665;SDS011;4370;48.916;8.380;2023-07-20T05:15:53;5.77;;;2.50;;
8665;SDS011;4370;48.916;8.380;2023-07-20T05:18:19;3.07;;;2.37;;
8665;SDS011;4370;48.916;8.380;2023-07-20T05:20:48;4.50;;;2.50;;
8665;SDS011;4370;48.916;8.380;2023-07-20T05:23:18;4.03;;;2.47;;
8665;SDS011;4370;48.916;8.380;2023-07-20T05:25:44;3.67;;;2.70;;
8665;SDS011;4370;48.916;8.380;2023-07-20T05:28:10;2.80;;;2.17;;
8665;SDS011;4370;48.916;8.380;2023-07-20T05:30:36;3.30;;;2.30;;
8665;SDS011;4370;48.916;8.380;2023-07-20T05:33:01;4.57;;;2.67;;
8665;SDS011;4370;48.916;8.380;2023-07-20T05:35:27;4.13;;;2.80;;
8665;SDS011;4370;48.916;8.380;2023-07-20T05:37:53;3.33;;;2.47;;
8665;SDS011;4370;48.916;8.380;2023-07-20T05:40:18;5.27;;;2.50;;
8665;SDS011;4370;48.916;8.380;2023-07-20T05:42:45;4.20;;;2.23;;
8665;SDS011;4370;48.916;8.380;2023-07-20T05:45:17;4.20;;;2.43;;
8665;SDS011;4370;48.916;8.380;2023-07-20T05:47:43;4.40;;;2.57;;
8665;SDS011;4370;48.916;8.380;2023-07-20T05:50:09;3.20;;;2.30;;
8665;SDS011;4370;48.916;8.380;2023-07-20T05:52:34;2.97;;;2.20;;
8665;SDS011;4370;48.916;8.380;2023-07-20T05:55:00;4.03;;;2.73;;
8665;SDS011;4370;48.916;8.380;2023-07-20T05:57:25;2.87;;;2.27;;
8665;SDS011;4370;48.916;8.380;2023-07-20T05:59:51;7.00;;;2.70;;
8665;SDS011;4370;48.916;8.380;2023-07-20T06:02:17;2.63;;;2.00;;
8665;SDS011;4370;48.916;8.380;2023-07-20T06:04:43;2.60;;;2.40;;
8665;SDS011;4370;48.916;8.380;2023-07-20T06:07:10;4.13;;;2.33;;
8665;SDS011;4370;48.916;8.380;2023-07-20T06:09:35;2.90;;;1.90;;
8665;SDS011;4370;48.916;8.380;2023-07-20T06:12:02;4.33;;;2.20;;
8665;SDS011;4370;48.916;8.380;2023-07-20T06:14:30;4.37;;;2.20;;
8665;SDS011;4370;48.916;8.380;2023-07-20T06:16:55;5.77;;;2.40;;
8665;SDS011;4370;48.916;8.380;2023-07-20T06:19:24;4.78;;;2.50;;
8665;SDS011;4370;48.916;8.380;2023-07-20T06:21:50;2.97;;;2.15;;
8665;SDS011;4370;48.916;8.380;2023-07-20T06:24:17;3.72;;;2.20;;
8665;SDS011;4370;48.916;8.380;2023-07-20T06:26:42;3.10;;;2.22;;
8665;SDS011;4370;48.916;8.380;2023-07-20T06:29:08;3.35;;;2.42;;
8665;SDS011;4370;48.916;8.380;2023-07-20T06:31:34;3.77;;;2.00;;
8665;SDS011;4370;48.916;8.380;2023-07-20T06:34:00;6.27;;;2.67;;
8665;SDS011;4370;48.916;8.380;2023-07-20T06:36:26;5.53;;;2.20;;
8665;SDS011;4370;48.916;8.380;2023-07-20T06:38:52;5.10;;;2.43;;
8665;SDS011;4370;48.916;8.380;2023-07-20T06:41:18;3.33;;;2.47;;
8665;SDS011;4370;48.916;8.380;2023-07-20T06:43:44;4.47;;;2.33;;
8665;SDS011;4370;48.916;8.380;2023-07-20T06:46:10;5.77;;;2.80;;
8665;SDS011;4370;48.916;8.380;2023-07-20T06:48:35;3.10;;;2.53;;
8665;SDS011;4370;48.916;8.380;2023-07-20T06:51:02;5.97;;;2.37;;
8665;SDS011;4370;48.916;8.380;2023-07-20T06:53:27;2.97;;;2.47;;
8665;SDS011;4370;48.916;8.380;2023-07-20T06:55:54;4.50;;;2.43;;
8665;SDS011;4370;48.916;8.380;2023-07-20T06:58:21;4.47;;;2.30;;
8665;SDS011;4370;48.916;8.380;2023-07-20T07:00:47;2.97;;;2.10;;
8665;SDS011;4370;48.916;8.380;2023-07-20T07:03:12;4.10;;;2.55;;
8665;SDS011;4370;48.916;8.380;2023-07-20T07:05:38;7.03;;;2.50;;
8665;SDS011;4370;48.916;8.380;2023-07-20T07:08:04;4.72;;;2.40;;
8665;SDS011;4370;48.916;8.380;2023-07-20T07:10:31;3.88;;;2.30;;
8665;SDS011;4370;48.916;8.380;2023-07-20T07:12:57;4.00;;;2.20;;
8665;SDS011;4370;48.916;8.380;2023-07-20T07:15:23;6.45;;;2.40;;
8665;SDS011;4370;48.916;8.380;2023-07-20T07:17:48;3.42;;;2.42;;
8665;SDS011;4370;48.916;8.380;2023-07-20T07:20:15;3.20;;;2.30;;
8665;SDS011;4370;48.916;8.380;2023-07-20T07:22:40;6.15;;;2.60;;
8665;SDS011;4370;48.916;8.380;2023-07-20T07:25:10;5.90;;;2.50;;
8665;SDS011;4370;48.916;8.380;2023-07-20T07:27:36;6.03;;;2.50;;
8665;SDS011;4370;48.916;8.380;2023-07-20T07:30:02;7.70;;;2.33;;
8665;SDS011;4370;48.916;8.380;2023-07-20T07:32:28;5.90;;;2.60;;
8665;SDS011;4370;48.916;8.380;2023-07-20T07:34:54;6.43;;;2.40;;
8665;SDS011;4370;48.916;8.380;2023-07-20T07:37:20;6.78;;;2.20;;
8665;SDS011;4370;48.916;8.380;2023-07-20T07:39:45;3.85;;;2.35;;
8665;SDS011;4370;48.916;8.380;2023-07-20T07:42:11;6.57;;;2.10;;
8665;SDS011;4370;48.916;8.380;2023-07-20T07:44:37;2.45;;;1.98;;
8665;SDS011;4370;48.916;8.380;2023-07-20T07:47:03;4.05;;;1.80;;
8665;SDS011;4370;48.916;8.380;2023-07-20T07:49:29;5.00;;;2.10;;
8665;SDS011;4370;48.916;8.380;2023-07-20T07:51:56;3.88;;;2.30;;
8665;SDS011;4370;48.916;8.380;2023-07-20T07:54:22;3.67;;;1.90;;
8665;SDS011;4370;48.916;8.380;2023-07-20T07:56:47;3.55;;;2.15;;
8665;SDS011;4370;48.916;8.380;2023-07-20T07:59:13;4.20;;;2.00;;
8665;SDS011;4370;48.916;8.380;2023-07-20T08:01:38;2.67;;;1.80;;
8665;SDS011;4370;48.916;8.380;2023-07-20T08:04:04;5.13;;;2.17;;
8665;SDS011;4370;48.916;8.380;2023-07-20T08:06:29;3.05;;;1.90;;
8665;SDS011;4370;48.916;8.380;2023-07-20T08:08:56;2.40;;;2.00;;
8665;SDS011;4370;48.916;8.380;2023-07-20T08:11:22;3.45;;;2.03;;
8665;SDS011;4370;48.916;8.380;2023-07-20T08:13:48;4.20;;;1.90;;
8665;SDS011;4370;48.916;8.380;2023-07-20T08:16:13;3.92;;;1.90;;
8665;SDS011;4370;48.916;8.380;2023-07-20T08:18:39;4.57;;;1.95;;
8665;SDS011;4370;48.916;8.380;2023-07-20T08:21:05;3.97;;;2.00;;
8665;SDS011;4370;48.916;8.380;2023-07-20T08:23:30;4.22;;;1.92;;
8665;SDS011;4370;48.916;8.380;2023-07-20T08:25:56;3.30;;;1.80;;
8665;SDS011;4370;48.916;8.380;2023-07-20T08:28:22;3.40;;;1.70;;
8665;SDS011;4370;48.916;8.380;2023-07-20T08:30:48;5.90;;;1.85;;
8665;SDS011;4370;48.916;8.380;2023-07-20T08:33:14;8.20;;;2.10;;
8665;SDS011;4370;48.916;8.380;2023-07-20T08:35:41;2.75;;;1.58;;
8665;SDS011;4370;48.916;8.380;2023-07-20T08:38:08;4.20;;;1.92;;
8665;SDS011;4370;48.916;8.380;2023-07-20T08:40:35;3.42;;;1.90;;
8665;SDS011;4370;48.916;8.380;2023-07-20T08:43:08;4.32;;;2.42;;
8665;SDS011;4370;48.916;8.380;2023-07-20T08:45:38;4.72;;;1.90;;
8665;SDS011;4370;48.916;8.380;2023-07-20T08:48:06;2.78;;;1.52;;
8665;SDS011;4370;48.916;8.380;2023-07-20T08:50:33;4.10;;;2.08;;
8665;SDS011;4370;48.916;8.380;2023-07-20T08:53:00;6.97;;;1.90;;
8665;SDS011;4370;48.916;8.380;2023-07-20T08:55:27;2.17;;;1.77;;
8665;SDS011;4370;48.916;8.380;2023-07-20T08:57:54;3.65;;;1.75;;
8665;SDS011;4370;48.916;8.380;2023-07-20T09:00:21;3.78;;;1.90;;
8665;SDS011;4370;48.916;8.380;2023-07-20T09:02:49;4.50;;;2.00;;
8665;SDS011;4370;48.916;8.380;2023-07-20T09:05:20;3.20;;;1.90;;
8665;SDS011;4370;48.916;8.380;2023-07-20T09:07:48;2.88;;;1.90;;
8665;SDS011;4370;48.916;8.380;2023-07-20T09:10:13;3.35;;;1.92;;
8665;SDS011;4370;48.916;8.380;2023-07-20T09:12:40;4.10;;;2.13;;
8665;SDS011;4370;48.916;8.380;2023-07-20T09:15:07;2.67;;;1.90;;
8665;SDS011;4370;48.916;8.380;2023-07-20T09:17:34;3.67;;;1.83;;
8665;SDS011;4370;48.916;8.380;2023-07-20T09:20:06;2.65;;;1.67;;
8665;SDS011;4370;48.916;8.380;2023-07-20T09:22:38;6.32;;;2.25;;
8665;SDS011;4370;48.916;8.380;2023-07-20T09:25:08;3.78;;;2.03;;
8665;SDS011;4370;48.916;8.380;2023-07-20T09:27:41;2.88;;;2.13;;
8665;SDS011;4370;48.916;8.380;2023-07-20T09:30:13;3.65;;;1.90;;
8665;SDS011;4370;48.916;8.380;2023-07-20T09:32:40;2.70;;;2.10;;
8665;SDS011;4370;48.916;8.380;2023-07-20T09:35:18;2.90;;;1.95;;
8665;SDS011;4370;48.916;8.380;2023-07-20T09:37:49;4.68;;;1.92;;
8665;SDS011;4370;48.916;8.380;2023-07-20T09:40:25;6.20;;;1.90;;
8665;SDS011;4370;48.916;8.380;2023-07-20T09:42:53;5.13;;;1.95;;
8665;SDS011;4370;48.916;8.380;2023-07-20T09:45:30;3.65;;;1.90;;
8665;SDS011;4370;48.916;8.380;2023-07-20T09:48:08;2.60;;;1.85;;
8665;SDS011;4370;48.916;8.380;2023-07-20T09:50:41;3.33;;;2.13;;
8665;SDS011;4370;48.916;8.380;2023-07-20T09:53:13;4.68;;;2.00;;
8665;SDS011;4370;48.916;8.380;2023-07-20T09:55:39;3.10;;;1.80;;
8665;SDS011;4370;48.916;8.380;2023-07-20T09:58:08;3.03;;;1.90;;
8665;SDS011;4370;48.916;8.380;2023-07-20T10:00:35;3.40;;;1.77;;
8665;SDS011;4370;48.916;8.380;2023-07-20T10:03:03;4.15;;;2.05;;
8665;SDS011;4370;48.916;8.380;2023-07-20T10:05:32;4.22;;;2.35;;
8665;SDS011;4370;48.916;8.380;2023-07-20T10:08:00;2.83;;;1.80;;
8665;SDS011;4370;48.916;8.380;2023-07-20T10:10:31;3.38;;;1.63;;
8665;SDS011;4370;48.916;8.380;2023-07-20T10:13:00;3.63;;;2.00;;
8665;SDS011;4370;48.916;8.380;2023-07-20T10:15:40;2.97;;;1.90;;
8665;SDS011;4370;48.916;8.380;2023-07-20T10:21:06;5.25;;;2.28;;
8665;SDS011;4370;48.916;8.380;2023-07-20T10:23:35;3.58;;;2.25;;
8665;SDS011;4370;48.916;8.380;2023-07-20T10:26:02;2.80;;;1.90;;
8665;SDS011;4370;48.916;8.380;2023-07-20T10:28:29;2.40;;;1.65;;
8665;SDS011;4370;48.916;8.380;2023-07-20T10:30:54;3.05;;;2.20;;
8665;SDS011;4370;48.916;8.380;2023-07-20T10:33:22;3.88;;;1.75;;
8665;SDS011;4370;48.916;8.380;2023-07-20T10:36:02;3.08;;;1.92;;
8665;SDS011;4370;48.916;8.380;2023-07-20T10:41:18;5.90;;;1.77;;
8665;SDS011;4370;48.916;8.380;2023-07-20T10:43:49;4.95;;;1.92;;
8665;SDS011;4370;48.916;8.380;2023-07-20T10:46:32;1.85;;;1.55;;
8665;SDS011;4370;48.916;8.380;2023-07-20T10:49:09;4.30;;;1.90;;
8665;SDS011;4370;48.916;8.380;2023-07-20T10:54:09;3.38;;;1.67;;
8665;SDS011;4370;48.916;8.380;2023-07-20T10:56:55;1.73;;;1.60;;
8665;SDS011;4370;48.916;8.380;2023-07-20T11:01:50;3.08;;;1.60;;
8665;SDS011;4370;48.916;8.380;2023-07-20T11:04:21;2.45;;;1.98;;
8665;SDS011;4370;48.916;8.380;2023-07-20T11:07:02;3.42;;;1.98;;
8665;SDS011;4370;48.916;8.380;2023-07-20T11:09:33;3.38;;;1.75;;
8665;SDS011;4370;48.916;8.380;2023-07-20T11:14:56;3.70;;;2.15;;
8665;SDS011;4370;48.916;8.380;2023-07-20T11:17:33;2.08;;;1.60;;
8665;SDS011;4370;48.916;8.380;2023-07-20T11:20:01;2.85;;;1.80;;
8665;SDS011;4370;48.916;8.380;2023-07-20T11:22:28;2.08;;;1.50;;
8665;SDS011;4370;48.916;8.380;2023-07-20T11:24:55;1.50;;;1.40;;
8665;SDS011;4370;48.916;8.380;2023-07-20T11:27:21;1.70;;;1.60;;
8665;SDS011;4370;48.916;8.380;2023-07-20T11:29:49;1.55;;;1.40;;
8665;SDS011;4370;48.916;8.380;2023-07-20T11:32:21;3.60;;;1.60;;
8665;SDS011;4370;48.916;8.380;2023-07-20T11:34:48;2.28;;;1.67;;
8665;SDS011;4370;48.916;8.380;2023-07-20T11:37:14;3.58;;;1.60;;
8665;SDS011;4370;48.916;8.380;2023-07-20T11:39:39;2.33;;;1.90;;
8665;SDS011;4370;48.916;8.380;2023-07-20T11:42:07;1.88;;;1.42;;
8665;SDS011;4370;48.916;8.380;2023-07-20T11:44:34;3.00;;;1.67;;
8665;SDS011;4370;48.916;8.380;2023-07-20T11:47:01;1.85;;;1.50;;
8665;SDS011;4370;48.916;8.380;2023-07-20T11:49:30;2.53;;;1.50;;
8665;SDS011;4370;48.916;8.380;2023-07-20T11:52:00;2.03;;;1.50;;
8665;SDS011;4370;48.916;8.380;2023-07-20T11:54:26;2.50;;;1.70;;
8665;SDS011;4370;48.916;8.380;2023-07-20T11:56:55;1.73;;;1.33;;
8665;SDS011;4370;48.916;8.380;2023-07-20T11:59:21;1.88;;;1.35;;
8665;SDS011;4370;48.916;8.380;2023-07-20T12:01:48;1.60;;;1.50;;
8665;SDS011;4370;48.916;8.380;2023-07-20T12:04:14;1.67;;;1.30;;
8665;SDS011;4370;48.916;8.380;2023-07-20T12:06:41;1.50;;;1.30;;
8665;SDS011;4370;48.916;8.380;2023-07-20T12:09:12;1.85;;;1.20;;
8665;SDS011;4370;48.916;8.380;2023-07-20T12:11:42;1.60;;;1.40;;
8665;SDS011;4370;48.916;8.380;2023-07-20T12:14:08;2.13;;;1.30;;
8665;SDS011;4370;48.916;8.380;2023-07-20T12:16:34;1.40;;;1.27;;
8665;SDS011;4370;48.916;8.380;2023-07-20T12:19:05;3.53;;;1.20;;
8665;SDS011;4370;48.916;8.380;2023-07-20T12:21:36;2.88;;;1.50;;
8665;SDS011;4370;48.916;8.380;2023-07-20T12:24:05;2.05;;;1.38;;
8665;SDS011;4370;48.916;8.380;2023-07-20T12:26:32;1.52;;;1.20;;
8665;SDS011;4370;48.916;8.380;2023-07-20T12:28:59;3.60;;;2.30;;
8665;SDS011;4370;48.916;8.380;2023-07-20T12:31:28;1.83;;;1.50;;
8665;SDS011;4370;48.916;8.380;2023-07-20T12:33:56;3.50;;;1.50;;
8665;SDS011;4370;48.916;8.380;2023-07-20T12:36:24;1.60;;;1.50;;
8665;SDS011;4370;48.916;8.380;2023-07-20T12:38:51;2.33;;;1.30;;
8665;SDS011;4370;48.916;8.380;2023-07-20T12:41:17;1.83;;;1.40;;
8665;SDS011;4370;48.916;8.380;2023-07-20T12:43:45;2.70;;;1.30;;
8665;SDS011;4370;48.916;8.380;2023-07-20T12:46:11;1.80;;;1.27;;
8665;SDS011;4370;48.916;8.380;2023-07-20T12:48:38;1.75;;;1.20;;
8665;SDS011;4370;48.916;8.380;2023-07-20T12:51:06;1.65;;;1.10;;
8665;SDS011;4370;48.916;8.380;2023-07-20T12:53:32;1.73;;;1.23;;
8665;SDS011;4370;48.916;8.380;2023-07-20T12:55:58;1.55;;;1.30;;
8665;SDS011;4370;48.916;8.380;2023-07-20T12:58:25;1.35;;;1.20;;
8665;SDS011;4370;48.916;8.380;2023-07-20T13:00:50;1.42;;;1.20;;
8665;SDS011;4370;48.916;8.380;2023-07-20T13:03:16;1.83;;;1.15;;
8665;SDS011;4370;48.916;8.380;2023-07-20T13:05:46;1.63;;;1.48;;
8665;SDS011;4370;48.916;8.380;2023-07-20T13:08:12;1.77;;;1.38;;
8665;SDS011;4370;48.916;8.380;2023-07-20T13:10:38;1.50;;;1.40;;
8665;SDS011;4370;48.916;8.380;2023-07-20T13:13:04;1.77;;;1.23;;
8665;SDS011;4370;48.916;8.380;2023-07-20T13:15:31;2.08;;;1.38;;
8665;SDS011;4370;48.916;8.380;2023-07-20T13:17:58;3.63;;;1.17;;
8665;SDS011;4370;48.916;8.380;2023-07-20T13:20:24;1.70;;;1.20;;
8665;SDS011;4370;48.916;8.380;2023-07-20T13:22:50;1.38;;;1.20;;
8665;SDS011;4370;48.916;8.380;2023-07-20T13:25:16;2.22;;;1.15;;
8665;SDS011;4370;48.916;8.380;2023-07-20T13:27:44;1.38;;;1.25;;
8665;SDS011;4370;48.916;8.380;2023-07-20T13:30:10;1.80;;;1.48;;
8665;SDS011;4370;48.916;8.380;2023-07-20T13:32:44;1.42;;;1.10;;
8665;SDS011;4370;48.916;8.380;2023-07-20T13:35:10;2.17;;;1.40;;
8665;SDS011;4370;48.916;8.380;2023-07-20T13:37:36;2.22;;;1.50;;
8665;SDS011;4370;48.916;8.380;2023-07-20T13:40:02;2.58;;;1.40;;
8665;SDS011;4370;48.916;8.380;2023-07-20T13:42:34;1.45;;;1.30;;
8665;SDS011;4370;48.916;8.380;2023-07-20T13:45:00;1.90;;;1.30;;
8665;SDS011;4370;48.916;8.380;2023-07-20T13:47:26;1.48;;;1.30;;
8665;SDS011;4370;48.916;8.380;2023-07-20T13:49:52;1.60;;;1.50;;
8665;SDS011;4370;48.916;8.380;2023-07-20T13:52:17;1.52;;;1.30;;
8665;SDS011;4370;48.916;8.380;2023-07-20T13:54:43;1.83;;;1.50;;
8665;SDS011;4370;48.916;8.380;2023-07-20T13:57:08;2.72;;;1.60;;
8665;SDS011;4370;48.916;8.380;2023-07-20T13:59:35;2.03;;;1.23;;
8665;SDS011;4370;48.916;8.380;2023-07-20T14:02:01;2.17;;;1.30;;
8665;SDS011;4370;48.916;8.380;2023-07-20T14:04:27;1.63;;;1.25;;
8665;SDS011;4370;48.916;8.380;2023-07-20T14:06:54;2.00;;;1.60;;
8665;SDS011;4370;48.916;8.380;2023-07-20T14:09:19;1.40;;;1.30;;
8665;SDS011;4370;48.916;8.380;2023-07-20T14:11:45;1.30;;;1.10;;
8665;SDS011;4370;48.916;8.380;2023-07-20T14:14:12;1.55;;;1.45;;
8665;SDS011;4370;48.916;8.380;2023-07-20T14:16:37;1.50;;;1.27;;
8665;SDS011;4370;48.916;8.380;2023-07-20T14:19:03;1.48;;;1.35;;
8665;SDS011;4370;48.916;8.380;2023-07-20T14:21:32;3.15;;;1.38;;
8665;SDS011;4370;48.916;8.380;2023-07-20T14:23:58;1.50;;;1.40;;
8665;SDS011;4370;48.916;8.380;2023-07-20T14:26:24;1.50;;;1.20;;
8665;SDS011;4370;48.916;8.380;2023-07-20T14:28:51;1.40;;;1.23;;
8665;SDS011;4370;48.916;8.380;2023-07-20T14:31:17;1.38;;;1.27;;
8665;SDS011;4370;48.916;8.380;2023-07-20T14:33:43;1.80;;;1.38;;
8665;SDS011;4370;48.916;8.380;2023-07-20T14:36:09;1.58;;;1.48;;
8665;SDS011;4370;48.916;8.380;2023-07-20T14:38:34;3.10;;;1.60;;
8665;SDS011;4370;48.916;8.380;2023-07-20T14:41:00;1.50;;;1.40;;
8665;SDS011;4370;48.916;8.380;2023-07-20T14:43:27;1.58;;;1.48;;
8665;SDS011;4370;48.916;8.380;2023-07-20T14:45:52;2.20;;;1.50;;
8665;SDS011;4370;48.916;8.380;2023-07-20T14:48:19;2.17;;;1.30;;
8665;SDS011;4370;48.916;8.380;2023-07-20T14:50:45;2.15;;;1.55;;
8665;SDS011;4370;48.916;8.380;2023-07-20T14:53:12;1.67;;;1.33;;
8665;SDS011;4370;48.916;8.380;2023-07-20T14:55:38;1.55;;;1.45;;
8665;SDS011;4370;48.916;8.380;2023-07-20T14:58:04;1.55;;;1.45;;
8665;SDS011;4370;48.916;8.380;2023-07-20T15:00:29;1.60;;;1.40;;
8665;SDS011;4370;48.916;8.380;2023-07-20T15:02:55;1.30;;;1.20;;
8665;SDS011;4370;48.916;8.380;2023-07-20T15:05:22;2.03;;;1.33;;
8665;SDS011;4370;48.916;8.380;2023-07-20T15:07:49;2.08;;;1.40;;
8665;SDS011;4370;48.916;8.380;2023-07-20T15:10:16;1.95;;;1.52;;
8665;SDS011;4370;48.916;8.380;2023-07-20T15:12:41;1.75;;;1.25;;
8665;SDS011;4370;48.916;8.380;2023-07-20T15:15:10;2.13;;;1.48;;
8665;SDS011;4370;48.916;8.380;2023-07-20T15:17:38;1.58;;;1.27;;
8665;SDS011;4370;48.916;8.380;2023-07-20T15:20:06;1.50;;;1.40;;
8665;SDS011;4370;48.916;8.380;2023-07-20T15:22:33;1.50;;;1.30;;
8665;SDS011;4370;48.916;8.380;2023-07-20T15:24:59;1.75;;;1.35;;
8665;SDS011;4370;48.916;8.380;2023-07-20T15:27:25;1.55;;;1.38;;
8665;SDS011;4370;48.916;8.380;2023-07-20T15:29:51;3.00;;;1.23;;
8665;SDS011;4370;48.916;8.380;2023-07-20T15:32:20;2.15;;;1.52;;
8665;SDS011;4370;48.916;8.380;2023-07-20T15:34:45;2.58;;;1.45;;
8665;SDS011;4370;48.916;8.380;2023-07-20T15:37:11;1.58;;;1.42;;